Canyonlands National Park, UT

4:28 AM MDT on August 28, 2014 (GMT -0600)
Canon Vista | Change Station
CLOSE
Current Station
Personal Weather Station
Location: Moab, UT
Elevation: 4183 ft
Nearby Weather Stations

Elev 4183 ft 38.56 °N, 109.53 °W | Updated 3 seconds ago

Overcast
Overcast
62.4 °F
Feels Like 62.4 °F
N
0.0
Wind Variable Wind from SE
Gusts 0.0 mph

Today
High -- | Low -- °F
--% Chance of Precip.
Yesterday
High -- | Low -- °F
Precip. -- in
6:43 AM 7:53 PM
Waxing Crescent, 7% visible
Pressure 30.06 in
Visibility 10.0 miles
Clouds Overcast 10000 ft
Dew Point 55 °F
Humidity 77%
Rainfall 0.00 in
Snow Depth 0 in
UV 0 out of 12
Pollen 6.00 out of 12
Air Quality Not available.
Flu Activity Not available.
METAR KCNY 280953Z AUTO 00000KT 10SM OVC100 18/10 A3020 RMK AO2 SLP178 T01780100

More Conditions Fewer Conditions

Pressure 30.06 in
Visibility 10.0 miles
Clouds Overcast 10000 ft
Dew Point 55 °F
Humidity 77%
Rainfall 0.00 in
Snow Depth 0 in
UV 0 out of 12
Pollen 6.00 out of 12
Air Quality Not available.
Flu Activity Not available.
METAR KCNY 280953Z AUTO 00000KT 10SM OVC100 18/10 A3020 RMK AO2 SLP178 T01780100

More Conditions Fewer Conditions

10-Day Weather Forecast

Almanac

Astronomy

Aug. 28, 2014 Rise Set
Actual Time 6:43 AM MDT 7:53 PM MDT
Civil Twilight 6:16 AM MDT 8:21 PM MDT
Nautical Twilight 5:43 AM MDT 8:53 PM MDT
Astronomical Twilight 5:09 AM MDT 9:27 PM MDT
Moon 9:36 AM MDT 9:22 PM MDT
Length of Visible Light 14h 04m
Length of Day
13h 10m
Tomorrow will be 2m 22s shorter.
Waxing Crescent, 7% of the Moon is Illuminated
Today
Waxing Crescent
Sep 2
First Quarter
Sep 8
Full
Sep 15
Last Quarter
Sep 24
New

Today's Extremes

State Highs State Lows

Community

WunderPhotos

Upload Photos

1,747,921 photos uploaded!

Nearby

Snow Depth

Station Depth Elevation
Lasal Mountain 0 in 9850 ft
Donkey Reservoir 0 in 9800 ft
Black Flat-U.M. Creek 0 in 9400 ft
Seeley Creek 0 in 10000 ft
Mammoth-Cottonwood 0 in 8800 ft

Earthquake Activity

City Distance Mag. Time & Date
No recent earthquake activity has been reported nearby.
Minimum magnitude displayed is 2.5.

Coastal Water Temperatures

Place Temperature
No Stations Reporting

Nearby Weather Stations